createdAt,value
2022-11-07T00:01:21.652Z,99.90
2022-11-07T00:03:49.749Z,99.90
2022-11-07T00:06:17.678Z,99.90
2022-11-07T00:08:45.712Z,99.90
2022-11-07T00:11:13.684Z,99.90
2022-11-07T00:13:41.944Z,99.90
2022-11-07T00:16:11.706Z,99.90
2022-11-07T00:18:41.083Z,99.90
2022-11-07T00:21:10.940Z,99.90
2022-11-07T00:23:41.912Z,99.90
2022-11-07T00:26:11.932Z,99.90
2022-11-07T00:28:41.697Z,99.90
2022-11-07T00:31:11.345Z,99.90
2022-11-07T00:33:41.015Z,99.90
2022-11-07T00:36:10.475Z,99.90
2022-11-07T00:38:38.527Z,99.90
2022-11-07T00:41:07.627Z,99.90
2022-11-07T00:43:36.158Z,99.90
2022-11-07T00:46:05.856Z,99.90
2022-11-07T00:48:34.467Z,99.90
2022-11-07T00:51:08.274Z,99.90
2022-11-07T00:53:36.255Z,99.90
2022-11-07T00:56:05.385Z,99.90
2022-11-07T00:58:34.093Z,99.90
2022-11-07T01:01:09.229Z,99.90
2022-11-07T01:03:55.366Z,99.90
2022-11-07T01:06:25.149Z,99.90
2022-11-07T01:08:55.321Z,99.90
2022-11-07T01:11:24.539Z,99.90
2022-11-07T01:13:56.386Z,99.90
2022-11-07T01:16:24.612Z,99.90
2022-11-07T01:18:52.584Z,99.90
2022-11-07T01:21:20.913Z,99.90
2022-11-07T01:23:50.287Z,99.90
2022-11-07T01:26:18.859Z,99.90
2022-11-07T01:28:46.937Z,99.90
2022-11-07T01:31:16.857Z,99.90
2022-11-07T01:33:45.497Z,99.90
2022-11-07T01:36:15.896Z,99.90
2022-11-07T01:38:46.310Z,99.90
2022-11-07T01:41:25.318Z,99.90
2022-11-07T01:43:58.066Z,99.90
2022-11-07T01:46:28.969Z,99.90
2022-11-07T01:49:05.113Z,99.90
2022-11-07T01:51:35.179Z,99.90
2022-11-07T01:54:05.340Z,99.90
2022-11-07T01:56:36.684Z,99.90
2022-11-07T01:59:05.718Z,99.90
2022-11-07T02:01:34.079Z,99.90
2022-11-07T02:04:03.317Z,99.90
2022-11-07T02:06:37.894Z,99.90
2022-11-07T02:09:05.979Z,99.90
2022-11-07T02:11:35.482Z,99.90
2022-11-07T02:14:03.416Z,99.90
2022-11-07T02:16:32.704Z,99.90
2022-11-07T02:19:01.106Z,99.90
2022-11-07T02:21:39.064Z,99.90
2022-11-07T02:24:17.154Z,99.90
2022-11-07T02:26:45.561Z,99.90
2022-11-07T02:29:14.017Z,99.90
2022-11-07T02:31:41.991Z,99.90
2022-11-07T02:34:09.981Z,99.90
2022-11-07T02:36:38.012Z,99.90
2022-11-07T02:39:06.075Z,99.90
2022-11-07T02:41:36.583Z,99.90
2022-11-07T02:44:09.699Z,99.90
2022-11-07T02:46:38.486Z,99.90
2022-11-07T02:49:06.475Z,99.90
2022-11-07T02:51:34.461Z,99.90
2022-11-07T02:54:02.443Z,99.90
2022-11-07T02:56:30.404Z,99.90
2022-11-07T02:58:59.717Z,99.90
2022-11-07T03:01:27.770Z,99.90
2022-11-07T03:03:55.898Z,99.90
2022-11-07T03:06:26.924Z,99.90
2022-11-07T03:08:54.898Z,99.90
2022-11-07T03:11:22.851Z,99.90
2022-11-07T03:13:51.931Z,99.90
2022-11-07T03:16:21.391Z,99.90
2022-11-07T03:18:49.399Z,99.90
2022-11-07T03:21:17.346Z,99.90
2022-11-07T03:23:45.327Z,99.90
2022-11-07T03:26:13.271Z,99.90
2022-11-07T03:28:41.261Z,99.90
2022-11-07T03:31:09.208Z,99.90
2022-11-07T03:33:38.511Z,99.90
2022-11-07T03:36:07.240Z,99.90
2022-11-07T03:38:35.205Z,99.90
2022-11-07T03:41:03.122Z,99.90
2022-11-07T03:43:31.103Z,99.90
2022-11-07T03:45:59.047Z,99.90
2022-11-07T03:48:27.033Z,99.90
2022-11-07T03:50:56.409Z,99.90
2022-11-07T03:53:26.140Z,99.90
2022-11-07T03:55:56.052Z,99.90
2022-11-07T03:58:24.528Z,99.90
2022-11-07T04:00:52.885Z,99.90
2022-11-07T04:03:20.855Z,99.90
2022-11-07T04:05:48.812Z,99.90
2022-11-07T04:08:18.301Z,99.90
2022-11-07T04:10:46.227Z,99.90
2022-11-07T04:13:31.884Z,99.90
2022-11-07T04:16:17.934Z,99.90
2022-11-07T04:18:46.093Z,99.90
2022-11-07T04:21:14.064Z,99.90
2022-11-07T04:23:43.381Z,99.90
2022-11-07T04:26:28.615Z,99.90
2022-11-07T04:28:56.593Z,99.90
2022-11-07T04:31:24.608Z,99.90
2022-11-07T04:33:53.275Z,99.90
2022-11-07T04:36:21.308Z,99.90
2022-11-07T04:38:50.631Z,99.90
2022-11-07T04:41:21.281Z,99.90
2022-11-07T04:43:49.248Z,99.90
2022-11-07T04:46:17.593Z,99.90
2022-11-07T04:48:45.760Z,99.90
2022-11-07T04:51:16.079Z,99.90
2022-11-07T04:53:44.081Z,99.90
2022-11-07T04:56:13.408Z,99.90
2022-11-07T04:58:41.369Z,99.90
2022-11-07T05:01:09.321Z,99.90
2022-11-07T05:03:41.456Z,99.90
2022-11-07T05:06:13.679Z,99.90
2022-11-07T05:08:41.618Z,99.90
2022-11-07T05:11:09.553Z,99.90
2022-11-07T05:13:38.875Z,99.90
2022-11-07T05:16:07.391Z,99.90
2022-11-07T05:18:35.331Z,99.90
2022-11-07T05:21:03.270Z,99.90
2022-11-07T05:23:30.279Z,99.90
2022-11-07T05:25:58.222Z,99.90
2022-11-07T05:28:37.052Z,99.90
2022-11-07T05:31:10.009Z,99.90
2022-11-07T05:33:37.991Z,99.90
2022-11-07T05:36:13.698Z,99.90
2022-11-07T05:38:43.149Z,99.90
2022-11-07T05:41:11.396Z,99.90
2022-11-07T05:43:39.599Z,99.90
2022-11-07T05:46:09.488Z,99.90
2022-11-07T05:48:38.110Z,99.90
2022-11-07T05:51:07.557Z,99.90
2022-11-07T05:53:36.097Z,99.90
2022-11-07T05:56:04.303Z,99.90
2022-11-07T05:58:32.239Z,99.90
2022-11-07T06:01:02.785Z,99.90
2022-11-07T06:03:32.126Z,99.90
2022-11-07T06:06:00.620Z,99.90
2022-11-07T06:08:28.575Z,99.90
2022-11-07T06:10:56.539Z,99.90
2022-11-07T06:13:24.506Z,99.90
2022-11-07T06:15:52.534Z,99.90
2022-11-07T06:18:22.051Z,99.90
2022-11-07T06:20:51.574Z,99.90
2022-11-07T06:23:20.232Z,99.90
2022-11-07T06:25:48.663Z,99.90
2022-11-07T06:28:16.749Z,99.90
2022-11-07T06:30:45.403Z,99.90
2022-11-07T06:33:15.735Z,99.90
2022-11-07T06:35:44.459Z,99.90
2022-11-07T06:38:15.569Z,99.90
2022-11-07T06:40:43.928Z,99.90
2022-11-07T06:43:15.035Z,99.90
2022-11-07T06:45:44.091Z,99.90
2022-11-07T06:48:13.074Z,99.90
2022-11-07T06:50:41.220Z,99.90
2022-11-07T06:53:11.279Z,99.90
2022-11-07T06:55:41.225Z,99.90
2022-11-07T06:58:09.206Z,99.90
2022-11-07T07:00:38.158Z,99.90
2022-11-07T07:03:06.501Z,99.90
2022-11-07T07:05:34.941Z,99.90
2022-11-07T07:08:03.432Z,99.90
2022-11-07T07:10:31.582Z,99.90
2022-11-07T07:13:01.483Z,99.90
2022-11-07T07:15:32.709Z,99.90
2022-11-07T07:18:10.315Z,99.90
2022-11-07T07:20:38.410Z,99.90
2022-11-07T07:23:06.442Z,99.90
2022-11-07T07:25:34.384Z,99.90
2022-11-07T07:28:03.707Z,99.90
2022-11-07T07:30:31.830Z,99.90
2022-11-07T07:32:59.799Z,99.90
2022-11-07T07:35:27.886Z,99.90
2022-11-07T07:37:55.841Z,99.90
2022-11-07T07:40:24.102Z,99.90
2022-11-07T07:42:52.089Z,99.90
2022-11-07T07:45:21.550Z,99.90
2022-11-07T07:47:49.471Z,99.90
2022-11-07T07:50:17.425Z,99.90
2022-11-07T07:52:45.443Z,99.90
2022-11-07T07:55:13.445Z,99.20
2022-11-07T07:57:42.962Z,99.00
2022-11-07T08:00:12.651Z,98.60
2022-11-07T08:02:44.168Z,98.00
2022-11-07T08:05:12.831Z,98.20
2022-11-07T08:07:46.913Z,97.00
2022-11-07T08:10:40.179Z,97.40
2022-11-07T08:13:03.396Z,97.50
2022-11-07T08:15:31.411Z,97.10
2022-11-07T08:18:03.567Z,97.10
2022-11-07T08:20:31.552Z,96.60
2022-11-07T08:23:03.721Z,96.70
2022-11-07T08:25:31.919Z,96.20
2022-11-07T08:28:00.218Z,96.00
2022-11-07T08:30:28.347Z,95.30
2022-11-07T08:32:56.669Z,95.30
2022-11-07T08:35:26.037Z,95.00
2022-11-07T08:37:54.528Z,94.90
2022-11-07T08:40:23.214Z,94.80
2022-11-07T08:42:51.178Z,95.00
2022-11-07T08:45:19.302Z,94.90
2022-11-07T08:47:47.276Z,95.00
2022-11-07T08:50:15.242Z,94.70
2022-11-07T08:52:44.585Z,94.50
2022-11-07T08:55:12.530Z,94.30
2022-11-07T08:57:40.481Z,94.20
2022-11-07T09:00:09.786Z,94.30
2022-11-07T09:05:25.708Z,94.20
2022-11-07T09:07:55.035Z,93.70
2022-11-07T09:10:23.063Z,93.10
2022-11-07T09:12:52.350Z,93.30
2022-11-07T09:15:20.877Z,93.10
2022-11-07T09:17:50.948Z,93.00
2022-11-07T09:20:19.726Z,92.80
2022-11-07T09:22:48.348Z,92.90
2022-11-07T09:25:17.702Z,92.70
2022-11-07T09:27:47.296Z,92.60
2022-11-07T09:30:15.599Z,92.00
2022-11-07T09:32:45.274Z,92.40
2022-11-07T09:35:14.346Z,92.40
2022-11-07T09:37:43.141Z,91.90
2022-11-07T09:40:25.064Z,91.50
2022-11-07T09:43:05.195Z,91.70
2022-11-07T09:45:39.726Z,91.60
2022-11-07T09:48:14.018Z,91.60
2022-11-07T09:50:44.232Z,91.60
2022-11-07T09:53:17.812Z,91.90
2022-11-07T09:55:53.037Z,91.40
2022-11-07T09:58:27.730Z,91.30
2022-11-07T10:00:57.910Z,91.60
2022-11-07T10:03:26.028Z,91.60
2022-11-07T10:06:04.201Z,91.50
2022-11-07T10:08:39.264Z,91.90
2022-11-07T10:11:15.337Z,91.90
2022-11-07T10:14:04.185Z,91.80
2022-11-07T10:16:47.784Z,91.60
2022-11-07T10:19:42.610Z,91.50
2022-11-07T10:22:22.852Z,91.50
2022-11-07T10:25:05.578Z,91.60
2022-11-07T10:27:36.526Z,91.40
2022-11-07T10:30:14.819Z,91.10
2022-11-07T10:32:50.749Z,91.10
2022-11-07T10:35:26.731Z,91.10
2022-11-07T10:37:56.195Z,91.50
2022-11-07T10:40:28.253Z,91.70
2022-11-07T10:42:58.441Z,91.90
2022-11-07T10:45:29.290Z,92.00
2022-11-07T10:47:59.021Z,91.70
2022-11-07T10:50:27.686Z,91.70
2022-11-07T10:52:56.820Z,91.70
2022-11-07T10:55:26.412Z,91.70
2022-11-07T10:57:59.933Z,91.70
2022-11-07T11:00:29.990Z,91.80
2022-11-07T11:02:58.139Z,92.10
2022-11-07T11:05:29.003Z,92.10
2022-11-07T11:07:58.855Z,92.20
2022-11-07T11:10:30.326Z,91.90
2022-11-07T11:12:59.658Z,91.50
2022-11-07T11:15:34.360Z,91.50
2022-11-07T11:18:05.596Z,91.60
2022-11-07T11:20:37.752Z,91.60
2022-11-07T11:23:09.005Z,91.60
2022-11-07T11:25:47.323Z,91.80
2022-11-07T11:28:24.883Z,91.80
2022-11-07T11:30:59.400Z,91.90
2022-11-07T11:33:35.822Z,91.90
2022-11-07T11:36:10.746Z,92.00
2022-11-07T11:38:39.372Z,92.20
2022-11-07T11:41:17.850Z,91.80
2022-11-07T11:43:52.526Z,92.10
2022-11-07T11:46:28.907Z,92.10
2022-11-07T11:49:01.804Z,92.00
2022-11-07T11:51:37.868Z,91.80
2022-11-07T11:54:09.300Z,91.60
2022-11-07T11:56:51.150Z,91.60
2022-11-07T11:59:49.487Z,91.70
2022-11-07T12:02:54.514Z,91.90
2022-11-07T12:05:39.861Z,91.80
2022-11-07T12:08:23.831Z,91.80
2022-11-07T12:10:56.558Z,91.70
2022-11-07T12:13:32.067Z,91.40
2022-11-07T12:16:18.109Z,91.50
2022-11-07T12:18:53.810Z,91.50
2022-11-07T12:21:31.842Z,91.70
2022-11-07T12:24:10.229Z,91.70
2022-11-07T12:26:44.916Z,91.70
2022-11-07T12:29:23.897Z,91.80
2022-11-07T12:32:04.268Z,91.90
2022-11-07T12:34:55.170Z,91.70
2022-11-07T12:37:44.118Z,91.90
2022-11-07T12:40:28.309Z,92.20
2022-11-07T12:43:14.408Z,91.90
2022-11-07T12:45:52.852Z,91.90
2022-11-07T12:48:54.119Z,92.10
2022-11-07T12:51:32.339Z,92.20
2022-11-07T12:54:16.344Z,92.40
2022-11-07T12:56:48.104Z,92.50
2022-11-07T12:59:26.926Z,92.60
2022-11-07T13:02:04.518Z,92.50
2022-11-07T13:04:41.183Z,92.60
2022-11-07T13:07:16.751Z,92.60
2022-11-07T13:09:53.652Z,92.60
2022-11-07T13:12:29.677Z,92.60
2022-11-07T13:14:58.459Z,92.80
2022-11-07T13:17:30.507Z,92.90
2022-11-07T13:20:05.850Z,92.80
2022-11-07T13:22:35.987Z,92.80
2022-11-07T13:25:25.242Z,92.90
2022-11-07T13:28:23.901Z,93.00
2022-11-07T13:30:57.646Z,93.20
2022-11-07T13:33:28.074Z,93.30
2022-11-07T13:35:59.620Z,93.50
2022-11-07T13:38:29.138Z,93.50
2022-11-07T13:41:01.892Z,93.50
2022-11-07T13:43:40.811Z,93.80
2022-11-07T13:46:12.154Z,93.50
2022-11-07T13:48:48.924Z,93.70
2022-11-07T13:51:21.211Z,93.70
2022-11-07T13:53:57.102Z,93.70
2022-11-07T13:56:31.055Z,93.70
2022-11-07T13:59:00.724Z,93.80
2022-11-07T14:01:29.116Z,93.70
2022-11-07T14:03:57.146Z,93.80
2022-11-07T14:06:27.027Z,93.50
2022-11-07T14:08:55.031Z,93.50
2022-11-07T14:11:24.173Z,93.50
2022-11-07T14:13:55.093Z,93.60
2022-11-07T14:16:25.784Z,93.70
2022-11-07T14:19:02.323Z,93.70
2022-11-07T14:21:34.623Z,93.90
2022-11-07T14:24:02.990Z,93.90
2022-11-07T14:26:32.874Z,94.00
2022-11-07T14:29:01.175Z,94.10
2022-11-07T14:31:33.647Z,94.20
2022-11-07T14:34:04.257Z,94.40
2022-11-07T14:36:35.367Z,94.40
2022-11-07T14:39:07.920Z,94.70
2022-11-07T14:41:42.715Z,95.10
2022-11-07T14:44:16.373Z,94.90
2022-11-07T14:46:45.083Z,94.80
2022-11-07T14:49:22.474Z,94.90
2022-11-07T14:51:53.273Z,95.00
2022-11-07T14:54:23.426Z,95.10
2022-11-07T14:56:56.311Z,95.40
2022-11-07T14:59:26.992Z,95.20
2022-11-07T15:01:58.293Z,95.40
2022-11-07T15:04:30.774Z,95.60
2022-11-07T15:07:46.736Z,95.60
2022-11-07T15:10:21.924Z,95.70
2022-11-07T15:12:54.276Z,95.80
2022-11-07T15:18:28.628Z,96.10
2022-11-07T15:20:59.131Z,96.30
2022-11-07T15:23:31.259Z,96.50
2022-11-07T15:26:03.150Z,96.70
2022-11-07T15:28:44.084Z,96.90
2022-11-07T15:31:20.826Z,96.90
2022-11-07T15:33:49.479Z,97.10
2022-11-07T15:36:17.884Z,97.20
2022-11-07T15:38:48.142Z,97.30
2022-11-07T15:41:16.282Z,97.50
2022-11-07T15:43:44.255Z,97.70
2022-11-07T15:46:23.095Z,97.80
2022-11-07T15:48:51.116Z,98.00
2022-11-07T15:51:19.179Z,98.10
2022-11-07T15:53:48.463Z,98.30
2022-11-07T15:56:19.062Z,98.50
2022-11-07T15:58:47.255Z,98.60
2022-11-07T16:01:15.402Z,98.80
2022-11-07T16:03:43.394Z,98.90
2022-11-07T16:06:17.647Z,99.10
2022-11-07T16:08:45.620Z,99.30
2022-11-07T16:11:15.068Z,99.60
2022-11-07T16:13:43.060Z,99.60
2022-11-07T16:16:16.617Z,99.80
2022-11-07T16:18:46.735Z,99.90
2022-11-07T16:21:14.681Z,99.90
2022-11-07T16:23:44.566Z,99.90
2022-11-07T16:26:16.714Z,99.90
2022-11-07T16:28:45.519Z,99.90
2022-11-07T16:31:13.467Z,99.90
2022-11-07T16:33:41.477Z,99.90
2022-11-07T16:36:19.222Z,99.90
2022-11-07T16:38:47.428Z,99.90
2022-11-07T16:41:17.360Z,99.90
2022-11-07T16:43:45.979Z,99.90
2022-11-07T16:46:15.306Z,99.90
2022-11-07T16:48:43.953Z,99.90
2022-11-07T16:51:15.359Z,99.90
2022-11-07T16:53:43.959Z,99.90
2022-11-07T16:56:22.499Z,99.90
2022-11-07T16:58:50.549Z,99.90
2022-11-07T17:01:18.584Z,99.90
2022-11-07T17:03:46.589Z,99.90
2022-11-07T17:06:20.475Z,99.90
2022-11-07T17:08:49.152Z,99.90
2022-11-07T17:11:18.387Z,99.90
2022-11-07T17:13:47.841Z,99.90
2022-11-07T17:16:19.755Z,99.90
2022-11-07T17:18:49.034Z,99.90
2022-11-07T17:21:25.746Z,99.90
2022-11-07T17:23:54.985Z,99.90
2022-11-07T17:26:25.313Z,99.90
2022-11-07T17:28:54.671Z,99.90
2022-11-07T17:31:22.747Z,99.90
2022-11-07T17:33:50.724Z,99.90
2022-11-07T17:36:35.250Z,99.90
2022-11-07T17:39:08.054Z,99.90
2022-11-07T17:41:36.048Z,99.90
2022-11-07T17:44:05.428Z,99.90
2022-11-07T17:46:35.521Z,99.90
2022-11-07T17:49:06.796Z,99.90
2022-11-07T17:51:35.806Z,99.90
2022-11-07T17:54:04.186Z,99.90
2022-11-07T17:56:34.484Z,99.90
2022-11-07T17:59:04.996Z,99.90
2022-11-07T18:01:36.713Z,99.90
2022-11-07T18:04:05.996Z,99.90
2022-11-07T18:06:35.689Z,99.90
2022-11-07T18:09:04.970Z,99.90
2022-11-07T18:11:33.623Z,99.90
2022-11-07T18:14:02.049Z,99.90
2022-11-07T18:16:31.409Z,99.90
2022-11-07T18:19:01.849Z,99.90
2022-11-07T18:21:30.263Z,99.90
2022-11-07T18:23:59.171Z,99.90
2022-11-07T18:26:30.728Z,99.90
2022-11-07T18:29:02.670Z,99.90
2022-11-07T18:31:30.676Z,99.90
2022-11-07T18:34:01.089Z,99.90
2022-11-07T18:36:30.751Z,99.90
2022-11-07T18:39:02.774Z,99.90
2022-11-07T18:41:30.721Z,99.90
2022-11-07T18:44:03.332Z,99.90
2022-11-07T18:46:33.056Z,99.90
2022-11-07T18:49:02.475Z,99.90
2022-11-07T18:51:30.529Z,99.90
2022-11-07T18:54:01.387Z,99.90
2022-11-07T18:56:29.827Z,99.90
2022-11-07T18:58:57.877Z,99.90
2022-11-07T19:01:28.348Z,99.90
2022-11-07T19:03:57.304Z,99.90
2022-11-07T19:06:29.231Z,99.90
2022-11-07T19:08:57.451Z,99.90
2022-11-07T19:11:29.485Z,99.90
2022-11-07T19:14:00.733Z,99.90
2022-11-07T19:16:28.686Z,99.90
2022-11-07T19:18:56.624Z,99.90
2022-11-07T19:21:25.921Z,99.90
2022-11-07T19:23:53.913Z,99.90
2022-11-07T19:26:21.973Z,99.90
2022-11-07T19:28:50.546Z,99.90
2022-11-07T19:31:18.532Z,99.90
2022-11-07T19:33:46.657Z,99.90
2022-11-07T19:36:16.889Z,99.90
2022-11-07T19:38:46.685Z,99.90
2022-11-07T19:41:16.194Z,99.90
2022-11-07T19:43:48.471Z,99.90
2022-11-07T19:46:22.178Z,99.90
2022-11-07T19:48:51.045Z,99.90
2022-11-07T19:51:22.475Z,99.90
2022-11-07T19:53:56.370Z,99.90
2022-11-07T19:56:26.122Z,99.90
2022-11-07T19:58:54.416Z,99.90
2022-11-07T20:01:26.171Z,99.90
2022-11-07T20:03:55.319Z,99.90
2022-11-07T20:06:25.483Z,99.90
2022-11-07T20:08:54.825Z,99.90
2022-11-07T20:11:24.802Z,99.90
2022-11-07T20:13:58.650Z,99.90
2022-11-07T20:16:29.902Z,99.90
2022-11-07T20:18:57.851Z,99.90
2022-11-07T20:21:26.129Z,99.90
2022-11-07T20:23:59.293Z,99.90
2022-11-07T20:26:29.220Z,99.90
2022-11-07T20:28:57.218Z,99.90
2022-11-07T20:31:27.598Z,99.90
2022-11-07T20:33:58.448Z,99.90
2022-11-07T20:36:26.535Z,99.90
2022-11-07T20:38:56.689Z,99.90
2022-11-07T20:41:27.272Z,99.90
2022-11-07T20:43:56.048Z,99.90
2022-11-07T20:46:24.309Z,99.90
2022-11-07T20:48:53.501Z,99.90
2022-11-07T20:51:23.756Z,99.90
2022-11-07T20:53:51.997Z,99.90
2022-11-07T20:56:23.122Z,99.90
2022-11-07T20:58:51.711Z,99.90
2022-11-07T21:01:22.192Z,99.90
2022-11-07T21:03:50.257Z,99.90
2022-11-07T21:06:19.382Z,99.90
2022-11-07T21:08:49.416Z,99.90
2022-11-07T21:11:17.865Z,99.90
2022-11-07T21:13:52.723Z,99.90
2022-11-07T21:16:22.586Z,99.90
2022-11-07T21:18:52.509Z,99.90
2022-11-07T21:21:22.372Z,99.90
2022-11-07T21:23:51.036Z,99.90
2022-11-07T21:26:21.133Z,99.90
2022-11-07T21:28:50.467Z,99.90
2022-11-07T21:31:21.856Z,99.90
2022-11-07T21:33:49.874Z,99.90
2022-11-07T21:36:20.083Z,99.90
2022-11-07T21:38:48.268Z,99.90
2022-11-07T21:41:16.680Z,99.90
2022-11-07T21:43:45.096Z,99.90
2022-11-07T21:46:15.851Z,99.90
2022-11-07T21:48:44.439Z,99.90
2022-11-07T21:51:15.289Z,99.90
2022-11-07T21:53:43.495Z,99.90
2022-11-07T21:56:15.898Z,99.90
2022-11-07T21:58:43.907Z,99.90
2022-11-07T22:01:12.291Z,99.90
2022-11-07T22:04:05.265Z,99.90
2022-11-07T22:06:33.107Z,99.90
2022-11-07T22:09:01.629Z,99.90
2022-11-07T22:11:29.574Z,99.90
2022-11-07T22:13:57.543Z,99.90
2022-11-07T22:16:25.628Z,99.90
2022-11-07T22:18:55.073Z,99.90
2022-11-07T22:21:24.178Z,99.90
2022-11-07T22:23:52.249Z,99.90
2022-11-07T22:26:21.633Z,99.90
2022-11-07T22:28:50.273Z,99.90
2022-11-07T22:31:20.408Z,99.90
2022-11-07T22:33:48.613Z,99.90
2022-11-07T22:36:17.966Z,99.90
2022-11-07T22:38:46.299Z,99.90
2022-11-07T22:41:16.243Z,99.90
2022-11-07T22:43:44.366Z,99.90
2022-11-07T22:46:14.406Z,99.90
2022-11-07T22:48:42.739Z,99.90
2022-11-07T22:51:13.098Z,99.90
2022-11-07T22:53:42.597Z,99.90
2022-11-07T22:56:11.507Z,99.90
2022-11-07T22:58:39.932Z,99.90
2022-11-07T23:01:13.777Z,99.90
2022-11-07T23:03:41.744Z,99.90
2022-11-07T23:06:10.155Z,99.90
2022-11-07T23:08:38.742Z,99.90
2022-11-07T23:14:03.378Z,99.90
2022-11-07T23:16:33.695Z,99.90
2022-11-07T23:19:04.822Z,99.90
2022-11-07T23:21:33.016Z,99.90
2022-11-07T23:24:01.694Z,99.90
2022-11-07T23:26:33.966Z,99.90
2022-11-07T23:29:09.069Z,99.90
2022-11-07T23:31:38.585Z,99.90
2022-11-07T23:34:06.649Z,99.90
2022-11-07T23:36:34.626Z,99.90
2022-11-07T23:39:05.763Z,99.90
2022-11-07T23:41:35.201Z,99.90
2022-11-07T23:44:03.436Z,99.90
2022-11-07T23:46:49.234Z,99.90
2022-11-07T23:49:34.764Z,99.90
2022-11-07T23:52:02.790Z,99.90
2022-11-07T23:54:48.041Z,99.90
2022-11-07T23:57:17.402Z,99.90
